sensor_id;sensor_type;location;lat;lon;timestamp;P1;durP1;ratioP1;P2;durP2;ratioP2
72275;SDS011;61204;49.980;8.358;2023-09-18T00:00:57;4.78;;;3.40;;
72275;SDS011;61204;49.980;8.358;2023-09-18T00:03:23;7.55;;;4.20;;
72275;SDS011;61204;49.980;8.358;2023-09-18T00:05:51;10.07;;;4.15;;
72275;SDS011;61204;49.980;8.358;2023-09-18T00:08:18;7.47;;;3.80;;
72275;SDS011;61204;49.980;8.358;2023-09-18T00:10:52;9.00;;;3.55;;
72275;SDS011;61204;49.980;8.358;2023-09-18T00:15:47;6.05;;;4.22;;
72275;SDS011;61204;49.980;8.358;2023-09-18T00:18:14;8.25;;;3.35;;
72275;SDS011;61204;49.980;8.358;2023-09-18T00:20:41;6.65;;;3.42;;
72275;SDS011;61204;49.980;8.358;2023-09-18T00:23:08;7.72;;;3.40;;
72275;SDS011;61204;49.980;8.358;2023-09-18T00:25:36;6.32;;;3.63;;
72275;SDS011;61204;49.980;8.358;2023-09-18T00:28:02;6.72;;;3.97;;
72275;SDS011;61204;49.980;8.358;2023-09-18T00:30:28;5.78;;;3.65;;
72275;SDS011;61204;49.980;8.358;2023-09-18T00:32:54;6.93;;;3.42;;
72275;SDS011;61204;49.980;8.358;2023-09-18T00:35:19;6.53;;;3.85;;
72275;SDS011;61204;49.980;8.358;2023-09-18T00:37:47;5.32;;;3.45;;
72275;SDS011;61204;49.980;8.358;2023-09-18T00:40:12;7.03;;;3.80;;
72275;SDS011;61204;49.980;8.358;2023-09-18T00:42:38;8.10;;;3.60;;
72275;SDS011;61204;49.980;8.358;2023-09-18T00:45:04;9.43;;;3.47;;
72275;SDS011;61204;49.980;8.358;2023-09-18T00:47:30;5.75;;;3.33;;
72275;SDS011;61204;49.980;8.358;2023-09-18T00:49:57;7.05;;;3.63;;
72275;SDS011;61204;49.980;8.358;2023-09-18T00:52:23;8.27;;;3.58;;
72275;SDS011;61204;49.980;8.358;2023-09-18T00:54:50;6.45;;;2.85;;
72275;SDS011;61204;49.980;8.358;2023-09-18T00:57:17;7.63;;;3.47;;
72275;SDS011;61204;49.980;8.358;2023-09-18T00:59:44;5.28;;;3.42;;
72275;SDS011;61204;49.980;8.358;2023-09-18T01:02:10;10.13;;;3.95;;
72275;SDS011;61204;49.980;8.358;2023-09-18T01:04:37;8.13;;;3.35;;
72275;SDS011;61204;49.980;8.358;2023-09-18T01:07:03;4.68;;;3.05;;
72275;SDS011;61204;49.980;8.358;2023-09-18T01:09:30;5.57;;;3.60;;
72275;SDS011;61204;49.980;8.358;2023-09-18T01:14:59;5.60;;;3.30;;
72275;SDS011;61204;49.980;8.358;2023-09-18T01:17:57;6.93;;;3.58;;
72275;SDS011;61204;49.980;8.358;2023-09-18T01:20:24;6.50;;;3.85;;
72275;SDS011;61204;49.980;8.358;2023-09-18T01:22:49;8.80;;;3.80;;
72275;SDS011;61204;49.980;8.358;2023-09-18T01:25:15;5.90;;;3.22;;
72275;SDS011;61204;49.980;8.358;2023-09-18T01:27:43;6.97;;;4.18;;
72275;SDS011;61204;49.980;8.358;2023-09-18T01:30:09;6.78;;;3.40;;
72275;SDS011;61204;49.980;8.358;2023-09-18T01:32:35;6.35;;;3.00;;
72275;SDS011;61204;49.980;8.358;2023-09-18T01:35:04;7.95;;;3.88;;
72275;SDS011;61204;49.980;8.358;2023-09-18T01:37:32;5.70;;;2.90;;
72275;SDS011;61204;49.980;8.358;2023-09-18T01:40:01;5.70;;;3.28;;
72275;SDS011;61204;49.980;8.358;2023-09-18T01:42:31;5.53;;;3.03;;
72275;SDS011;61204;49.980;8.358;2023-09-18T01:45:01;6.47;;;3.50;;
72275;SDS011;61204;49.980;8.358;2023-09-18T01:47:30;9.95;;;4.00;;
72275;SDS011;61204;49.980;8.358;2023-09-18T01:49:56;6.13;;;3.45;;
72275;SDS011;61204;49.980;8.358;2023-09-18T01:52:21;5.80;;;3.30;;
72275;SDS011;61204;49.980;8.358;2023-09-18T01:54:47;4.88;;;3.78;;
72275;SDS011;61204;49.980;8.358;2023-09-18T01:57:13;5.72;;;3.35;;
72275;SDS011;61204;49.980;8.358;2023-09-18T01:59:39;5.20;;;3.75;;
72275;SDS011;61204;49.980;8.358;2023-09-18T02:02:08;9.00;;;4.63;;
72275;SDS011;61204;49.980;8.358;2023-09-18T02:04:34;9.35;;;4.93;;
72275;SDS011;61204;49.980;8.358;2023-09-18T02:07:01;14.15;;;4.57;;
72275;SDS011;61204;49.980;8.358;2023-09-18T02:09:27;7.25;;;3.90;;
72275;SDS011;61204;49.980;8.358;2023-09-18T02:11:56;8.43;;;4.75;;
72275;SDS011;61204;49.980;8.358;2023-09-18T02:14:22;8.05;;;4.68;;
72275;SDS011;61204;49.980;8.358;2023-09-18T02:16:47;9.52;;;5.18;;
72275;SDS011;61204;49.980;8.358;2023-09-18T02:19:14;9.10;;;4.55;;
72275;SDS011;61204;49.980;8.358;2023-09-18T02:21:41;9.57;;;5.18;;
72275;SDS011;61204;49.980;8.358;2023-09-18T02:24:07;13.18;;;5.60;;
72275;SDS011;61204;49.980;8.358;2023-09-18T02:26:34;9.57;;;5.90;;
72275;SDS011;61204;49.980;8.358;2023-09-18T02:29:08;8.48;;;5.85;;
72275;SDS011;61204;49.980;8.358;2023-09-18T02:31:39;7.43;;;5.28;;
72275;SDS011;61204;49.980;8.358;2023-09-18T02:34:05;11.95;;;4.78;;
72275;SDS011;61204;49.980;8.358;2023-09-18T02:36:32;7.30;;;4.93;;
72275;SDS011;61204;49.980;8.358;2023-09-18T02:38:58;6.82;;;5.65;;
72275;SDS011;61204;49.980;8.358;2023-09-18T02:41:24;7.60;;;4.97;;
72275;SDS011;61204;49.980;8.358;2023-09-18T02:43:52;10.57;;;5.07;;
72275;SDS011;61204;49.980;8.358;2023-09-18T02:46:17;9.60;;;4.70;;
72275;SDS011;61204;49.980;8.358;2023-09-18T02:48:43;10.15;;;4.47;;
72275;SDS011;61204;49.980;8.358;2023-09-18T02:51:08;8.27;;;5.00;;
72275;SDS011;61204;49.980;8.358;2023-09-18T02:53:34;7.13;;;5.18;;
72275;SDS011;61204;49.980;8.358;2023-09-18T02:56:01;6.40;;;4.32;;
72275;SDS011;61204;49.980;8.358;2023-09-18T02:58:29;13.23;;;5.30;;
72275;SDS011;61204;49.980;8.358;2023-09-18T03:00:55;7.40;;;5.22;;
72275;SDS011;61204;49.980;8.358;2023-09-18T03:03:27;10.95;;;4.82;;
72275;SDS011;61204;49.980;8.358;2023-09-18T03:05:53;9.38;;;4.85;;
72275;SDS011;61204;49.980;8.358;2023-09-18T03:08:30;8.60;;;4.82;;
72275;SDS011;61204;49.980;8.358;2023-09-18T03:10:56;9.38;;;5.15;;
72275;SDS011;61204;49.980;8.358;2023-09-18T03:13:22;7.30;;;4.80;;
72275;SDS011;61204;49.980;8.358;2023-09-18T03:15:48;11.02;;;5.10;;
72275;SDS011;61204;49.980;8.358;2023-09-18T03:18:13;10.80;;;5.75;;
72275;SDS011;61204;49.980;8.358;2023-09-18T03:20:40;9.70;;;5.28;;
72275;SDS011;61204;49.980;8.358;2023-09-18T03:23:05;8.45;;;4.82;;
72275;SDS011;61204;49.980;8.358;2023-09-18T03:25:31;8.48;;;5.55;;
72275;SDS011;61204;49.980;8.358;2023-09-18T03:27:57;6.45;;;4.60;;
72275;SDS011;61204;49.980;8.358;2023-09-18T03:30:23;7.55;;;4.75;;
72275;SDS011;61204;49.980;8.358;2023-09-18T03:32:50;7.20;;;4.45;;
72275;SDS011;61204;49.980;8.358;2023-09-18T03:35:17;7.95;;;4.93;;
72275;SDS011;61204;49.980;8.358;2023-09-18T03:37:44;6.97;;;4.20;;
72275;SDS011;61204;49.980;8.358;2023-09-18T03:40:15;7.97;;;4.15;;
72275;SDS011;61204;49.980;8.358;2023-09-18T03:42:43;7.03;;;4.10;;
72275;SDS011;61204;49.980;8.358;2023-09-18T03:45:10;8.77;;;4.60;;
72275;SDS011;61204;49.980;8.358;2023-09-18T03:47:37;7.38;;;4.60;;
72275;SDS011;61204;49.980;8.358;2023-09-18T03:50:06;9.45;;;5.45;;
72275;SDS011;61204;49.980;8.358;2023-09-18T03:52:34;8.43;;;5.53;;
72275;SDS011;61204;49.980;8.358;2023-09-18T03:55:00;8.80;;;5.60;;
72275;SDS011;61204;49.980;8.358;2023-09-18T03:57:29;15.52;;;5.97;;
72275;SDS011;61204;49.980;8.358;2023-09-18T03:59:54;7.75;;;4.57;;
72275;SDS011;61204;49.980;8.358;2023-09-18T04:02:21;9.15;;;4.68;;
72275;SDS011;61204;49.980;8.358;2023-09-18T04:04:51;8.80;;;5.70;;
72275;SDS011;61204;49.980;8.358;2023-09-18T04:07:19;6.57;;;4.95;;
72275;SDS011;61204;49.980;8.358;2023-09-18T04:09:45;9.68;;;5.00;;
72275;SDS011;61204;49.980;8.358;2023-09-18T04:12:11;8.98;;;5.47;;
72275;SDS011;61204;49.980;8.358;2023-09-18T04:14:38;9.93;;;5.57;;
72275;SDS011;61204;49.980;8.358;2023-09-18T04:17:06;8.45;;;5.07;;
72275;SDS011;61204;49.980;8.358;2023-09-18T04:19:31;10.57;;;5.65;;
72275;SDS011;61204;49.980;8.358;2023-09-18T04:21:57;8.25;;;4.68;;
72275;SDS011;61204;49.980;8.358;2023-09-18T04:24:25;6.60;;;4.65;;
72275;SDS011;61204;49.980;8.358;2023-09-18T04:26:51;7.35;;;4.88;;
72275;SDS011;61204;49.980;8.358;2023-09-18T04:29:17;8.82;;;4.75;;
72275;SDS011;61204;49.980;8.358;2023-09-18T04:31:44;8.10;;;5.05;;
72275;SDS011;61204;49.980;8.358;2023-09-18T04:34:10;10.27;;;4.88;;
72275;SDS011;61204;49.980;8.358;2023-09-18T04:36:36;8.82;;;4.80;;
72275;SDS011;61204;49.980;8.358;2023-09-18T04:39:03;6.70;;;4.75;;
72275;SDS011;61204;49.980;8.358;2023-09-18T04:41:31;8.43;;;4.75;;
72275;SDS011;61204;49.980;8.358;2023-09-18T04:43:57;12.32;;;4.55;;
72275;SDS011;61204;49.980;8.358;2023-09-18T04:46:23;8.35;;;4.63;;
72275;SDS011;61204;49.980;8.358;2023-09-18T04:48:52;6.68;;;4.68;;
72275;SDS011;61204;49.980;8.358;2023-09-18T04:51:17;5.95;;;3.97;;
72275;SDS011;61204;49.980;8.358;2023-09-18T04:53:43;7.20;;;4.28;;
72275;SDS011;61204;49.980;8.358;2023-09-18T04:56:11;7.07;;;3.80;;
72275;SDS011;61204;49.980;8.358;2023-09-18T04:58:39;7.78;;;4.00;;
72275;SDS011;61204;49.980;8.358;2023-09-18T05:01:05;6.00;;;4.10;;
72275;SDS011;61204;49.980;8.358;2023-09-18T05:03:34;9.13;;;4.53;;
72275;SDS011;61204;49.980;8.358;2023-09-18T05:06:01;6.93;;;4.47;;
72275;SDS011;61204;49.980;8.358;2023-09-18T05:08:31;10.20;;;4.18;;
72275;SDS011;61204;49.980;8.358;2023-09-18T05:10:59;7.63;;;4.07;;
72275;SDS011;61204;49.980;8.358;2023-09-18T05:13:27;9.48;;;4.40;;
72275;SDS011;61204;49.980;8.358;2023-09-18T05:15:52;8.43;;;4.38;;
72275;SDS011;61204;49.980;8.358;2023-09-18T05:18:18;8.40;;;3.88;;
72275;SDS011;61204;49.980;8.358;2023-09-18T05:20:47;7.90;;;4.28;;
72275;SDS011;61204;49.980;8.358;2023-09-18T05:23:12;9.48;;;4.20;;
72275;SDS011;61204;49.980;8.358;2023-09-18T05:25:38;9.52;;;4.25;;
72275;SDS011;61204;49.980;8.358;2023-09-18T05:28:07;7.03;;;4.47;;
72275;SDS011;61204;49.980;8.358;2023-09-18T05:30:33;8.35;;;4.43;;
72275;SDS011;61204;49.980;8.358;2023-09-18T05:33:03;7.50;;;4.60;;
72275;SDS011;61204;49.980;8.358;2023-09-18T05:35:35;5.68;;;4.00;;
72275;SDS011;61204;49.980;8.358;2023-09-18T05:38:07;6.82;;;4.03;;
72275;SDS011;61204;49.980;8.358;2023-09-18T05:40:35;7.70;;;4.50;;
72275;SDS011;61204;49.980;8.358;2023-09-18T05:43:01;7.82;;;4.20;;
72275;SDS011;61204;49.980;8.358;2023-09-18T05:45:30;8.25;;;4.03;;
72275;SDS011;61204;49.980;8.358;2023-09-18T05:47:57;6.72;;;4.38;;
72275;SDS011;61204;49.980;8.358;2023-09-18T05:50:28;8.80;;;4.30;;
72275;SDS011;61204;49.980;8.358;2023-09-18T05:52:57;7.40;;;3.92;;
72275;SDS011;61204;49.980;8.358;2023-09-18T05:55:25;7.05;;;4.10;;
72275;SDS011;61204;49.980;8.358;2023-09-18T05:57:53;7.25;;;3.60;;
72275;SDS011;61204;49.980;8.358;2023-09-18T06:00:19;6.00;;;3.67;;
72275;SDS011;61204;49.980;8.358;2023-09-18T06:02:46;9.02;;;3.60;;
72275;SDS011;61204;49.980;8.358;2023-09-18T06:05:15;6.35;;;3.72;;
72275;SDS011;61204;49.980;8.358;2023-09-18T06:07:41;12.27;;;3.63;;
72275;SDS011;61204;49.980;8.358;2023-09-18T06:10:07;6.88;;;3.92;;
72275;SDS011;61204;49.980;8.358;2023-09-18T06:12:34;7.63;;;4.10;;
72275;SDS011;61204;49.980;8.358;2023-09-18T06:15:00;5.90;;;3.47;;
72275;SDS011;61204;49.980;8.358;2023-09-18T06:17:27;7.18;;;4.13;;
72275;SDS011;61204;49.980;8.358;2023-09-18T06:19:53;6.80;;;2.92;;
72275;SDS011;61204;49.980;8.358;2023-09-18T06:22:20;8.95;;;3.92;;
72275;SDS011;61204;49.980;8.358;2023-09-18T06:24:45;6.45;;;3.55;;
72275;SDS011;61204;49.980;8.358;2023-09-18T06:27:13;8.93;;;3.50;;
72275;SDS011;61204;49.980;8.358;2023-09-18T06:29:39;7.93;;;3.47;;
72275;SDS011;61204;49.980;8.358;2023-09-18T06:32:07;7.65;;;3.10;;
72275;SDS011;61204;49.980;8.358;2023-09-18T06:34:33;9.50;;;3.85;;
72275;SDS011;61204;49.980;8.358;2023-09-18T06:36:59;7.22;;;3.80;;
72275;SDS011;61204;49.980;8.358;2023-09-18T06:39:24;7.15;;;3.10;;
72275;SDS011;61204;49.980;8.358;2023-09-18T06:41:51;10.30;;;3.72;;
72275;SDS011;61204;49.980;8.358;2023-09-18T06:44:16;8.68;;;3.33;;
72275;SDS011;61204;49.980;8.358;2023-09-18T06:46:42;8.32;;;3.10;;
72275;SDS011;61204;49.980;8.358;2023-09-18T06:49:07;8.60;;;3.15;;
72275;SDS011;61204;49.980;8.358;2023-09-18T06:51:36;12.82;;;3.47;;
72275;SDS011;61204;49.980;8.358;2023-09-18T06:54:02;13.40;;;3.75;;
72275;SDS011;61204;49.980;8.358;2023-09-18T06:56:27;7.75;;;3.47;;
72275;SDS011;61204;49.980;8.358;2023-09-18T06:58:56;7.90;;;3.20;;
72275;SDS011;61204;49.980;8.358;2023-09-18T07:01:22;9.90;;;3.35;;
72275;SDS011;61204;49.980;8.358;2023-09-18T07:03:49;7.57;;;3.10;;
72275;SDS011;61204;49.980;8.358;2023-09-18T07:06:15;7.60;;;3.05;;
72275;SDS011;61204;49.980;8.358;2023-09-18T07:08:43;9.27;;;3.63;;
72275;SDS011;61204;49.980;8.358;2023-09-18T07:11:09;12.35;;;3.85;;
72275;SDS011;61204;49.980;8.358;2023-09-18T07:13:35;11.30;;;3.20;;
72275;SDS011;61204;49.980;8.358;2023-09-18T07:16:00;8.65;;;3.55;;
72275;SDS011;61204;49.980;8.358;2023-09-18T07:18:28;8.50;;;3.00;;
72275;SDS011;61204;49.980;8.358;2023-09-18T07:20:54;10.38;;;3.90;;
72275;SDS011;61204;49.980;8.358;2023-09-18T07:23:19;12.75;;;3.30;;
72275;SDS011;61204;49.980;8.358;2023-09-18T07:25:47;8.10;;;2.95;;
72275;SDS011;61204;49.980;8.358;2023-09-18T07:28:15;8.63;;;3.05;;
72275;SDS011;61204;49.980;8.358;2023-09-18T07:30:43;8.27;;;2.83;;
72275;SDS011;61204;49.980;8.358;2023-09-18T07:33:12;11.73;;;2.53;;
72275;SDS011;61204;49.980;8.358;2023-09-18T07:35:46;4.70;;;2.50;;
72275;SDS011;61204;49.980;8.358;2023-09-18T07:38:14;8.38;;;2.63;;
72275;SDS011;61204;49.980;8.358;2023-09-18T07:40:43;10.55;;;2.90;;
72275;SDS011;61204;49.980;8.358;2023-09-18T07:43:10;7.90;;;2.58;;
72275;SDS011;61204;49.980;8.358;2023-09-18T07:45:38;7.97;;;2.70;;
72275;SDS011;61204;49.980;8.358;2023-09-18T07:48:06;5.38;;;2.88;;
72275;SDS011;61204;49.980;8.358;2023-09-18T07:50:33;8.18;;;2.72;;
72275;SDS011;61204;49.980;8.358;2023-09-18T07:53:01;8.70;;;2.53;;
72275;SDS011;61204;49.980;8.358;2023-09-18T07:55:28;8.48;;;3.30;;
72275;SDS011;61204;49.980;8.358;2023-09-18T07:57:55;8.07;;;3.00;;
72275;SDS011;61204;49.980;8.358;2023-09-18T08:00:21;10.15;;;3.30;;
72275;SDS011;61204;49.980;8.358;2023-09-18T08:02:47;12.05;;;3.70;;
72275;SDS011;61204;49.980;8.358;2023-09-18T08:05:15;10.38;;;2.72;;
72275;SDS011;61204;49.980;8.358;2023-09-18T08:07:42;8.85;;;2.38;;
72275;SDS011;61204;49.980;8.358;2023-09-18T08:10:08;9.23;;;2.72;;
72275;SDS011;61204;49.980;8.358;2023-09-18T08:12:35;11.18;;;2.83;;
72275;SDS011;61204;49.980;8.358;2023-09-18T08:15:03;9.07;;;2.92;;
72275;SDS011;61204;49.980;8.358;2023-09-18T08:17:31;11.00;;;2.53;;
72275;SDS011;61204;49.980;8.358;2023-09-18T08:19:56;9.25;;;3.00;;
72275;SDS011;61204;49.980;8.358;2023-09-18T08:22:23;9.02;;;2.17;;
72275;SDS011;61204;49.980;8.358;2023-09-18T08:24:49;8.00;;;2.45;;
72275;SDS011;61204;49.980;8.358;2023-09-18T08:27:17;6.78;;;2.42;;
72275;SDS011;61204;49.980;8.358;2023-09-18T08:29:44;10.82;;;2.97;;
72275;SDS011;61204;49.980;8.358;2023-09-18T08:32:14;10.60;;;2.25;;
72275;SDS011;61204;49.980;8.358;2023-09-18T08:34:39;12.93;;;2.95;;
72275;SDS011;61204;49.980;8.358;2023-09-18T08:37:05;7.30;;;1.98;;
72275;SDS011;61204;49.980;8.358;2023-09-18T08:39:31;4.13;;;1.70;;
72275;SDS011;61204;49.980;8.358;2023-09-18T08:42:02;9.00;;;2.50;;
72275;SDS011;61204;49.980;8.358;2023-09-18T08:44:32;7.07;;;2.30;;
72275;SDS011;61204;49.980;8.358;2023-09-18T08:47:01;5.35;;;1.48;;
72275;SDS011;61204;49.980;8.358;2023-09-18T08:49:28;7.38;;;2.00;;
72275;SDS011;61204;49.980;8.358;2023-09-18T08:51:59;7.13;;;1.73;;
72275;SDS011;61204;49.980;8.358;2023-09-18T08:54:26;4.97;;;2.22;;
72275;SDS011;61204;49.980;8.358;2023-09-18T08:56:55;6.95;;;1.88;;
72275;SDS011;61204;49.980;8.358;2023-09-18T08:59:23;4.97;;;1.38;;
72275;SDS011;61204;49.980;8.358;2023-09-18T09:01:52;3.92;;;1.50;;
72275;SDS011;61204;49.980;8.358;2023-09-18T09:04:18;4.03;;;1.30;;
72275;SDS011;61204;49.980;8.358;2023-09-18T09:06:44;3.17;;;1.05;;
72275;SDS011;61204;49.980;8.358;2023-09-18T09:09:12;7.30;;;1.20;;
72275;SDS011;61204;49.980;8.358;2023-09-18T09:11:47;2.95;;;1.00;;
72275;SDS011;61204;49.980;8.358;2023-09-18T09:14:16;3.13;;;1.08;;
72275;SDS011;61204;49.980;8.358;2023-09-18T09:16:46;3.05;;;0.85;;
72275;SDS011;61204;49.980;8.358;2023-09-18T09:19:17;3.40;;;0.88;;
72275;SDS011;61204;49.980;8.358;2023-09-18T09:21:54;7.10;;;2.00;;
72275;SDS011;61204;49.980;8.358;2023-09-18T09:27:08;2.03;;;0.60;;
72275;SDS011;61204;49.980;8.358;2023-09-18T09:29:37;4.85;;;1.00;;
72275;SDS011;61204;49.980;8.358;2023-09-18T09:32:12;2.85;;;0.73;;
72275;SDS011;61204;49.980;8.358;2023-09-18T09:34:44;4.50;;;1.27;;
72275;SDS011;61204;49.980;8.358;2023-09-18T09:37:13;2.72;;;1.00;;
72275;SDS011;61204;49.980;8.358;2023-09-18T09:39:48;4.18;;;0.80;;
72275;SDS011;61204;49.980;8.358;2023-09-18T09:42:19;2.05;;;0.88;;
72275;SDS011;61204;49.980;8.358;2023-09-18T09:45:03;4.63;;;1.00;;
72275;SDS011;61204;49.980;8.358;2023-09-18T09:47:38;4.10;;;0.60;;
72275;SDS011;61204;49.980;8.358;2023-09-18T09:50:08;6.88;;;0.70;;
72275;SDS011;61204;49.980;8.358;2023-09-18T09:52:44;1.50;;;0.60;;
72275;SDS011;61204;49.980;8.358;2023-09-18T09:55:18;5.55;;;0.80;;
72275;SDS011;61204;49.980;8.358;2023-09-18T09:57:59;3.60;;;0.98;;
72275;SDS011;61204;49.980;8.358;2023-09-18T10:03:08;3.50;;;0.82;;
72275;SDS011;61204;49.980;8.358;2023-09-18T10:05:38;2.20;;;0.80;;
72275;SDS011;61204;49.980;8.358;2023-09-18T10:08:12;2.45;;;0.68;;
72275;SDS011;61204;49.980;8.358;2023-09-18T10:10:53;3.13;;;0.50;;
72275;SDS011;61204;49.980;8.358;2023-09-18T10:14:07;2.67;;;0.68;;
72275;SDS011;61204;49.980;8.358;2023-09-18T10:16:30;2.15;;;0.50;;
72275;SDS011;61204;49.980;8.358;2023-09-18T10:21:35;5.45;;;1.00;;
72275;SDS011;61204;49.980;8.358;2023-09-18T10:24:19;3.30;;;0.73;;
72275;SDS011;61204;49.980;8.358;2023-09-18T10:27:03;2.58;;;0.50;;
72275;SDS011;61204;49.980;8.358;2023-09-18T10:29:35;5.97;;;0.82;;
72275;SDS011;61204;49.980;8.358;2023-09-18T10:32:05;2.22;;;0.65;;
72275;SDS011;61204;49.980;8.358;2023-09-18T10:34:33;1.27;;;0.65;;
72275;SDS011;61204;49.980;8.358;2023-09-18T10:37:02;4.03;;;0.93;;
72275;SDS011;61204;49.980;8.358;2023-09-18T10:39:34;2.63;;;0.80;;
72275;SDS011;61204;49.980;8.358;2023-09-18T10:42:02;1.88;;;0.63;;
72275;SDS011;61204;49.980;8.358;2023-09-18T10:44:30;2.28;;;0.82;;
72275;SDS011;61204;49.980;8.358;2023-09-18T10:46:59;1.75;;;0.55;;
72275;SDS011;61204;49.980;8.358;2023-09-18T10:49:30;2.50;;;0.85;;
72275;SDS011;61204;49.980;8.358;2023-09-18T10:51:57;2.40;;;1.67;;
72275;SDS011;61204;49.980;8.358;2023-09-18T10:54:24;3.15;;;0.60;;
72275;SDS011;61204;49.980;8.358;2023-09-18T10:56:56;2.80;;;0.65;;
72275;SDS011;61204;49.980;8.358;2023-09-18T10:59:23;1.95;;;0.93;;
72275;SDS011;61204;49.980;8.358;2023-09-18T11:01:49;4.10;;;1.00;;
72275;SDS011;61204;49.980;8.358;2023-09-18T11:04:18;1.75;;;0.60;;
72275;SDS011;61204;49.980;8.358;2023-09-18T11:09:20;2.03;;;0.90;;
72275;SDS011;61204;49.980;8.358;2023-09-18T11:17:38;2.97;;;0.80;;
72275;SDS011;61204;49.980;8.358;2023-09-18T11:20:16;2.55;;;0.88;;
72275;SDS011;61204;49.980;8.358;2023-09-18T11:25:42;3.10;;;0.75;;
72275;SDS011;61204;49.980;8.358;2023-09-18T11:28:23;3.10;;;0.70;;
72275;SDS011;61204;49.980;8.358;2023-09-18T11:30:54;3.63;;;0.75;;
72275;SDS011;61204;49.980;8.358;2023-09-18T11:33:36;1.42;;;0.57;;
72275;SDS011;61204;49.980;8.358;2023-09-18T11:36:13;2.83;;;0.65;;
72275;SDS011;61204;49.980;8.358;2023-09-18T11:38:57;2.28;;;0.68;;
72275;SDS011;61204;49.980;8.358;2023-09-18T11:41:30;2.05;;;0.65;;
72275;SDS011;61204;49.980;8.358;2023-09-18T11:46:47;2.40;;;0.90;;
72275;SDS011;61204;49.980;8.358;2023-09-18T11:49:21;2.08;;;0.82;;
72275;SDS011;61204;49.980;8.358;2023-09-18T11:51:53;4.30;;;0.88;;
72275;SDS011;61204;49.980;8.358;2023-09-18T11:54:27;1.17;;;0.63;;
72275;SDS011;61204;49.980;8.358;2023-09-18T11:57:02;2.78;;;0.60;;
72275;SDS011;61204;49.980;8.358;2023-09-18T11:59:40;4.68;;;0.90;;
72275;SDS011;61204;49.980;8.358;2023-09-18T12:02:13;2.47;;;0.70;;
72275;SDS011;61204;49.980;8.358;2023-09-18T12:04:53;2.17;;;0.80;;
72275;SDS011;61204;49.980;8.358;2023-09-18T12:07:23;3.30;;;0.88;;
72275;SDS011;61204;49.980;8.358;2023-09-18T12:09:49;1.90;;;0.70;;
72275;SDS011;61204;49.980;8.358;2023-09-18T12:12:15;1.60;;;0.90;;
72275;SDS011;61204;49.980;8.358;2023-09-18T12:14:42;2.05;;;0.88;;
72275;SDS011;61204;49.980;8.358;2023-09-18T12:17:12;4.47;;;1.10;;
72275;SDS011;61204;49.980;8.358;2023-09-18T12:19:50;1.27;;;0.77;;
72275;SDS011;61204;49.980;8.358;2023-09-18T12:22:23;1.90;;;0.75;;
72275;SDS011;61204;49.980;8.358;2023-09-18T12:24:55;3.00;;;0.97;;
72275;SDS011;61204;49.980;8.358;2023-09-18T12:27:37;2.35;;;0.70;;
72275;SDS011;61204;49.980;8.358;2023-09-18T12:30:03;2.65;;;1.00;;
72275;SDS011;61204;49.980;8.358;2023-09-18T12:32:31;1.83;;;0.70;;
72275;SDS011;61204;49.980;8.358;2023-09-18T12:35:01;2.17;;;0.55;;
72275;SDS011;61204;49.980;8.358;2023-09-18T12:37:27;2.50;;;0.70;;
72275;SDS011;61204;49.980;8.358;2023-09-18T12:39:53;3.08;;;0.63;;
72275;SDS011;61204;49.980;8.358;2023-09-18T12:42:19;0.85;;;0.30;;
72275;SDS011;61204;49.980;8.358;2023-09-18T12:44:46;3.00;;;0.80;;
72275;SDS011;61204;49.980;8.358;2023-09-18T12:47:14;4.03;;;0.75;;
72275;SDS011;61204;49.980;8.358;2023-09-18T12:49:40;2.63;;;0.77;;
72275;SDS011;61204;49.980;8.358;2023-09-18T12:52:06;2.88;;;0.65;;
72275;SDS011;61204;49.980;8.358;2023-09-18T12:57:19;2.22;;;0.80;;
72275;SDS011;61204;49.980;8.358;2023-09-18T12:59:45;4.10;;;1.08;;
72275;SDS011;61204;49.980;8.358;2023-09-18T13:02:14;3.67;;;0.95;;
72275;SDS011;61204;49.980;8.358;2023-09-18T13:04:47;2.17;;;0.90;;
72275;SDS011;61204;49.980;8.358;2023-09-18T13:07:22;2.33;;;0.88;;
72275;SDS011;61204;49.980;8.358;2023-09-18T13:10:02;1.48;;;0.75;;
72275;SDS011;61204;49.980;8.358;2023-09-18T13:12:42;3.30;;;0.80;;
72275;SDS011;61204;49.980;8.358;2023-09-18T13:15:28;1.67;;;0.70;;
72275;SDS011;61204;49.980;8.358;2023-09-18T13:18:00;6.93;;;1.00;;
72275;SDS011;61204;49.980;8.358;2023-09-18T13:20:35;2.45;;;0.90;;
72275;SDS011;61204;49.980;8.358;2023-09-18T13:23:01;1.95;;;0.77;;
72275;SDS011;61204;49.980;8.358;2023-09-18T13:25:32;1.25;;;0.70;;
72275;SDS011;61204;49.980;8.358;2023-09-18T13:28:03;3.90;;;1.20;;
72275;SDS011;61204;49.980;8.358;2023-09-18T13:30:32;2.35;;;0.80;;
72275;SDS011;61204;49.980;8.358;2023-09-18T13:33:05;2.75;;;0.90;;
72275;SDS011;61204;49.980;8.358;2023-09-18T13:35:43;5.72;;;0.70;;
72275;SDS011;61204;49.980;8.358;2023-09-18T13:38:11;2.97;;;1.10;;
72275;SDS011;61204;49.980;8.358;2023-09-18T13:40:37;3.67;;;0.80;;
72275;SDS011;61204;49.980;8.358;2023-09-18T13:43:05;4.57;;;0.75;;
72275;SDS011;61204;49.980;8.358;2023-09-18T13:45:35;3.72;;;1.15;;
72275;SDS011;61204;49.980;8.358;2023-09-18T13:48:03;2.92;;;0.93;;
72275;SDS011;61204;49.980;8.358;2023-09-18T13:50:34;2.15;;;0.90;;
72275;SDS011;61204;49.980;8.358;2023-09-18T13:53:02;3.03;;;1.02;;
72275;SDS011;61204;49.980;8.358;2023-09-18T13:55:29;2.08;;;0.80;;
72275;SDS011;61204;49.980;8.358;2023-09-18T13:57:55;5.80;;;1.02;;
72275;SDS011;61204;49.980;8.358;2023-09-18T14:00:21;1.98;;;0.80;;
72275;SDS011;61204;49.980;8.358;2023-09-18T14:02:48;1.80;;;0.90;;
72275;SDS011;61204;49.980;8.358;2023-09-18T14:05:13;2.03;;;0.80;;
72275;SDS011;61204;49.980;8.358;2023-09-18T14:07:39;1.55;;;0.75;;
72275;SDS011;61204;49.980;8.358;2023-09-18T14:10:09;5.95;;;1.30;;
72275;SDS011;61204;49.980;8.358;2023-09-18T14:12:38;3.75;;;0.90;;
72275;SDS011;61204;49.980;8.358;2023-09-18T14:15:07;2.83;;;0.98;;
72275;SDS011;61204;49.980;8.358;2023-09-18T14:17:35;4.50;;;1.00;;
72275;SDS011;61204;49.980;8.358;2023-09-18T14:20:02;1.63;;;0.90;;
72275;SDS011;61204;49.980;8.358;2023-09-18T14:22:31;2.00;;;0.80;;
72275;SDS011;61204;49.980;8.358;2023-09-18T14:24:59;2.88;;;0.77;;
72275;SDS011;61204;49.980;8.358;2023-09-18T14:27:25;1.63;;;1.15;;
72275;SDS011;61204;49.980;8.358;2023-09-18T14:29:50;2.83;;;0.80;;
72275;SDS011;61204;49.980;8.358;2023-09-18T14:32:16;3.40;;;1.05;;
72275;SDS011;61204;49.980;8.358;2023-09-18T14:34:41;2.78;;;0.90;;
72275;SDS011;61204;49.980;8.358;2023-09-18T14:37:07;3.13;;;1.10;;
72275;SDS011;61204;49.980;8.358;2023-09-18T14:39:34;4.25;;;1.30;;
72275;SDS011;61204;49.980;8.358;2023-09-18T14:41:59;3.22;;;0.82;;
72275;SDS011;61204;49.980;8.358;2023-09-18T14:44:26;2.08;;;0.77;;
72275;SDS011;61204;49.980;8.358;2023-09-18T14:46:55;2.63;;;1.50;;
72275;SDS011;61204;49.980;8.358;2023-09-18T14:49:21;4.13;;;1.05;;
72275;SDS011;61204;49.980;8.358;2023-09-18T14:51:48;2.55;;;0.82;;
72275;SDS011;61204;49.980;8.358;2023-09-18T14:54:15;5.40;;;1.20;;
72275;SDS011;61204;49.980;8.358;2023-09-18T14:56:41;3.08;;;0.98;;
72275;SDS011;61204;49.980;8.358;2023-09-18T14:59:07;2.25;;;1.10;;
72275;SDS011;61204;49.980;8.358;2023-09-18T15:01:33;5.15;;;1.20;;
72275;SDS011;61204;49.980;8.358;2023-09-18T15:03:59;1.98;;;0.90;;
72275;SDS011;61204;49.980;8.358;2023-09-18T15:06:25;3.83;;;0.98;;
72275;SDS011;61204;49.980;8.358;2023-09-18T15:08:54;3.92;;;0.98;;
72275;SDS011;61204;49.980;8.358;2023-09-18T15:11:19;2.22;;;0.88;;
72275;SDS011;61204;49.980;8.358;2023-09-18T15:13:48;5.15;;;1.00;;
72275;SDS011;61204;49.980;8.358;2023-09-18T15:16:14;4.72;;;1.40;;
72275;SDS011;61204;49.980;8.358;2023-09-18T15:18:40;2.15;;;1.38;;
72275;SDS011;61204;49.980;8.358;2023-09-18T15:21:05;3.38;;;1.08;;
72275;SDS011;61204;49.980;8.358;2023-09-18T15:23:31;5.22;;;1.13;;